Latest Weather Observations for Hopetoun North

IDW60801

Issued at 7:35 am WST Friday 25 April 2014 (issued every 30 minutes, with the page automatically refreshed every 10 minutes)

About weather observations | Map of weather stations | Latest weather observations for WA | Other Formats
Station Details ID: 009961 Name: HOPETOUN NORTH Lat: -33.93 Lon: 120.13 Height: 26.0 m
Data from the previous 72 hours. | See also: Recent months at Hopetoun North
Date/Time
WST
Temp
°C
App
Temp
°C
Dew
Point
Rel
Hum
%
Delta-T
°C
Wind Press
QNH
hPa
Press
MSL
hPa
Rain
since 9 am
mm
Dir
 
Spd
km/h
Gust
km/h
Spd
kts
Gust
kts
25/07:30am - - - - - SW 20 28 11 15 1009.5 - 1.0
25/07:00am - - - - - SW 20 26 11 14 1009.1 1009.1 1.0
25/06:30am - - - - - W 11 15 6 8 1009.1 - 0.6
25/06:00am - - - - - WSW 11 19 6 10 1008.8 1008.8 0.6
25/05:30am - - - - - WSW 13 20 7 11 1008.6 - 0.6
25/05:00am - - - - - WSW 13 19 7 10 1008.4 1008.4 0.6
25/04:30am - - - - - W 13 17 7 9 1008.1 - 0.2
25/04:00am - - - - - WSW 11 17 6 9 1007.8 1007.8 0.2
25/03:30am - - - - - SW 9 13 5 7 1007.4 - 0.2
25/03:00am - - - - - W 9 15 5 8 1007.4 1007.4 0.0
25/02:30am - - - - - WNW 7 13 4 7 1007.2 - 0.0
25/02:00am - - - - - E 4 6 2 3 1006.9 1006.9 0.0
25/01:30am - - - - - SE 7 13 4 7 1007.1 - 0.0
25/01:00am - - - - - S 9 13 5 7 1007.1 1007.1 0.0
25/12:30am - - - - - SSW 11 15 6 8 1007.1 - 0.0
25/12:00am - - - - - SSW 17 22 9 12 1007.1 1007.1 0.0
 
Date/Time
WST
Temp
°C
App
Temp
°C
Dew
Point
Rel
Hum
%
Delta-T
°C
Wind Press
QNH
hPa
Press
MSL
hPa
Rain
since 9 am
mm
Dir
 
Spd
km/h
Gust
km/h
Spd
kts
Gust
kts
24/11:30pm - - - - - SW 11 17 6 9 1007.6 - 0.0
24/11:00pm - - - - - W 6 7 3 4 1008.0 1008.0 0.0
24/10:30pm - - - - - S 7 13 4 7 1007.6 - 0.0
24/10:00pm - - - - - SSE 7 9 4 5 1007.8 1007.8 0.0
24/09:30pm - - - - - SSE 6 11 3 6 1008.1 - 0.0
24/09:00pm - - - - - ESE 6 9 3 5 1008.1 1008.1 0.0
24/08:30pm - - - - - SE 11 17 6 9 1008.2 - 0.0
24/08:00pm - - - - - SSE 4 6 2 3 1008.4 1008.4 0.0
24/07:30pm - - - - - E 7 15 4 8 1008.2 - 0.0
24/07:00pm - - - - - E 11 17 6 9 1007.8 1007.8 0.0
24/06:30pm - - - - - E 13 22 7 12 1008.1 - 0.0
24/06:00pm - - - - - E 17 26 9 14 1008.1 1008.1 0.0
24/05:30pm - - - - - E 20 30 11 16 1007.6 - 0.0
24/05:00pm - - - - - ESE 24 33 13 18 1007.3 1007.3 0.0
24/04:30pm - - - - - ESE 24 32 13 17 1007.5 - 0.0
24/04:00pm - - - - - ESE 26 37 14 20 1007.6 1007.6 0.0
24/03:30pm - - - - - ESE 24 37 13 20 1007.8 - 0.0
24/03:00pm - - - - - ESE 26 35 14 19 1007.8 1007.8 0.0
24/02:30pm - - - - - ESE 24 33 13 18 1008.0 - 0.0
24/02:00pm - - - - - ESE 26 37 14 20 1008.2 1008.2 0.0
24/01:30pm - - - - - ESE 24 33 13 18 1008.6 - 0.0
24/01:00pm - - - - - ESE 24 33 13 18 1009.3 1009.3 0.0
24/12:30pm - - - - - ESE 19 28 10 15 1010.1 - 0.0
24/12:00pm - - - - - ENE 17 24 9 13 1010.8 1010.8 0.0
24/11:30am - - - - - ENE 17 28 9 15 1011.6 - 0.0
24/11:00am - - - - - ENE 19 26 10 14 1012.4 1012.4 0.0
24/10:30am - - - - - ENE 20 30 11 16 1013.2 - 0.0
24/10:00am - - - - - NE 22 32 12 17 1013.7 1013.7 0.0
24/09:30am - - - - - NE 22 30 12 16 1014.3 - 0.0
24/09:00am - - - - - NE 17 22 9 12 1014.9 1014.9 0.2
24/08:30am - - - - - NE 15 20 8 11 1015.5 - 0.2
24/08:00am - - - - - NE 7 13 4 7 1015.9 1015.8 0.2
24/07:30am - - - - - NE 7 9 4 5 1015.8 - 0.2
24/07:00am - - - - - NE 9 11 5 6 1015.7 1015.6 0.2
24/06:30am - - - - - NE 7 9 4 5 1015.7 - 0.2
24/06:00am - - - - - NNE 7 9 4 5 1015.9 1015.8 0.2
24/05:30am - - - - - NE 9 15 5 8 1015.8 - 0.2
24/05:00am - - - - - NNE 9 13 5 7 1015.9 1015.8 0.2
24/04:30am - - - - - NE 9 11 5 6 1015.9 - 0.2
24/04:00am - - - - - NNE 9 11 5 6 1015.9 1015.8 0.2
24/03:30am - - - - - NNE 9 11 5 6 1015.9 - 0.2
24/03:00am - - - - - NNE 9 9 5 5 1015.9 1015.8 0.2
24/02:30am - - - - - NNE 7 9 4 5 1016.2 - 0.2
24/02:00am - - - - - NNE 7 9 4 5 1016.6 1016.5 0.2
24/01:30am - - - - - NE 7 9 4 5 1016.9 - 0.2
24/01:00am - - - - - NE 7 9 4 5 1017.0 1016.9 0.2
24/12:30am - - - - - NE 7 9 4 5 1016.9 - 0.2
24/12:00am - - - - - NNE 6 7 3 4 1017.1 1017.0 0.2
 
Date/Time
WST
Temp
°C
App
Temp
°C
Dew
Point
Rel
Hum
%
Delta-T
°C
Wind Press
QNH
hPa
Press
MSL
hPa
Rain
since 9 am
mm
Dir
 
Spd
km/h
Gust
km/h
Spd
kts
Gust
kts
23/11:30pm - - - - - NNE 6 7 3 4 1017.2 - 0.2
23/11:00pm - - - - - NE 6 7 3 4 1017.3 1017.2 0.2
23/10:30pm - - - - - NNE 6 7 3 4 1017.5 - 0.2
23/10:00pm - - - - - NNE 6 7 3 4 1017.6 1017.5 0.2
23/09:30pm - - - - - ENE 6 7 3 4 1017.8 - 0.2
23/09:00pm - - - - - E 6 7 3 4 1018.0 1017.9 0.2
23/08:30pm - - - - - SE 9 11 5 6 1017.9 - 0.2
23/08:00pm - - - - - SE 9 15 5 8 1017.8 1017.7 0.2
23/07:30pm - - - - - SE 9 13 5 7 1017.8 - 0.2
23/07:00pm - - - - - SSE 9 13 5 7 1017.7 1017.6 0.2
23/06:30pm - - - - - SE 9 13 5 7 1017.5 - 0.2
23/06:00pm - - - - - SSE 9 11 5 6 1017.2 1017.1 0.2
23/05:30pm - - - - - S 11 17 6 9 1016.9 - 0.2
23/05:00pm - - - - - SSE 15 20 8 11 1016.8 1016.7 0.2
23/04:30pm - - - - - S 17 24 9 13 1016.6 - 0.2
23/04:00pm - - - - - S 19 26 10 14 1016.5 1016.4 0.2
23/03:30pm - - - - - S 20 28 11 15 1016.3 - 0.2
23/03:00pm - - - - - S 20 28 11 15 1016.2 1016.1 0.2
23/02:30pm - - - - - S 24 30 13 16 1016.1 - 0.2
23/02:00pm - - - - - S 20 28 11 15 1016.2 1016.1 0.2
23/01:30pm - - - - - S 19 26 10 14 1016.3 - 0.2
23/01:00pm - - - - - S 17 22 9 12 1016.5 1016.4 0.2
23/12:30pm - - - - - SSW 15 20 8 11 1016.7 - 0.2
23/12:00pm - - - - - SSW 17 24 9 13 1017.1 1017.0 0.2
23/11:30am - - - - - SSW 19 24 10 13 1017.5 - 0.2
23/11:00am - - - - - SW 17 22 9 12 1017.7 1017.6 0.2
23/10:30am - - - - - SW 17 24 9 13 1017.9 - 0.0
23/10:00am - - - - - WSW 7 13 4 7 1017.8 1017.7 0.0
23/09:30am - - - - - WSW 11 17 6 9 1018.0 - 0.0
23/09:00am - - - - - WSW 9 15 5 8 1017.9 1017.8 0.0
23/08:30am - - - - - WSW 4 6 2 3 1017.9 - 0.0
23/08:00am - - - - - NW 4 6 2 3 1017.7 1017.6 0.0
23/07:30am - - - - - NNW 7 9 4 5 1017.4 - 0.0
23/07:00am - - - - - NNW 9 11 5 6 1017.3 1017.2 0.0
23/06:30am - - - - - N 7 9 4 5 1017.2 - 0.0
23/06:00am - - - - - NW 7 9 4 5 1017.4 1017.3 0.0
23/05:30am - - - - - NNW 7 7 4 4 1017.2 - 0.0
23/05:00am - - - - - NNW 7 7 4 4 1016.9 1016.8 0.0
23/04:30am - - - - - W 4 6 2 3 1016.8 - 0.0
23/04:00am - - - - - WNW 4 6 2 3 1016.8 1016.7 0.0
23/03:30am - - - - - WNW 7 7 4 4 1016.6 - 0.0
23/03:00am - - - - - NW 7 9 4 5 1016.8 1016.7 0.0
23/02:30am - - - - - NW 6 7 3 4 1016.9 - 0.0
23/02:00am - - - - - NNW 4 6 2 3 1016.8 1016.7 0.0
23/01:30am - - - - - NNW 4 6 2 3 1017.1 - 0.0
23/01:00am - - - - - NNW 7 9 4 5 1017.3 1017.2 0.0
23/12:30am - - - - - NNW 7 7 4 4 1017.6 - 0.0
23/12:00am - - - - - NW 2 6 1 3 1017.8 1017.7 0.0
 
Date/Time
WST
Temp
°C
App
Temp
°C
Dew
Point
Rel
Hum
%
Delta-T
°C
Wind Press
QNH
hPa
Press
MSL
hPa
Rain
since 9 am
mm
Dir
 
Spd
km/h
Gust
km/h
Spd
kts
Gust
kts
22/11:30pm - - - - - N 4 7 2 4 1018.0 - 0.0
22/11:00pm - - - - - N 6 7 3 4 1018.2 1018.1 0.0
22/10:30pm - - - - - N 6 6 3 3 1018.5 - 0.0
22/10:00pm - - - - - N 6 6 3 3 1018.2 1018.1 0.0
22/09:30pm - - - - - NNE 4 7 2 4 1018.3 - 0.0
22/09:00pm - - - - - NNE 6 7 3 4 1018.2 1018.1 0.0
22/08:30pm - - - - - NNE 6 7 3 4 1018.1 - 0.0
22/08:00pm - - - - - NE 6 7 3 4 1018.0 1017.9 0.0
22/07:30pm - - - - - NE 6 7 3 4 1018.1 - 0.0
22/07:00pm - - - - - ESE 7 9 4 5 1018.0 1017.9 0.0
22/06:30pm - - - - - ESE 9 11 5 6 1017.8 - 0.0
22/06:00pm - - - - - SE 11 13 6 7 1017.7 1017.6 0.0
22/05:30pm - - - - - SE 7 11 4 6 1017.6 - 0.0
22/05:00pm - - - - - SE 9 15 5 8 1017.6 1017.5 0.0
22/04:30pm - - - - - SE 13 17 7 9 1017.5 - 0.0
22/04:00pm - - - - - SSE 13 20 7 11 1017.5 1017.4 0.0
22/03:30pm - - - - - SSE 17 22 9 12 1017.7 - 0.0
22/03:00pm - - - - - SSE 17 22 9 12 1017.8 1017.7 0.0
22/02:30pm - - - - - S 19 26 10 14 1017.8 - 0.0
22/02:00pm - - - - - SSE 19 24 10 13 1018.0 1017.9 0.0
22/01:30pm - - - - - S 19 24 10 13 1018.2 - 0.0
22/01:00pm - - - - - S 17 24 9 13 1018.6 1018.5 0.0
22/12:30pm - - - - - S 15 24 8 13 1019.0 - 0.0
22/12:00pm - - - - - S 6 11 3 6 1019.7 1019.6 0.0
22/11:30am - - - - - NNW 6 15 3 8 1020.2 - 0.0
22/11:00am - - - - - WNW 6 15 3 8 1020.6 1020.5 0.0
22/10:30am - - - - - NW 7 13 4 7 1021.0 - 0.0
22/10:00am - - - - - N 11 15 6 8 1021.3 1021.2 0.0
22/09:30am - - - - - N 13 19 7 10 1021.5 - 0.0
22/09:00am - - - - - NNW 11 17 6 9 1021.7 1021.6 0.0
22/08:30am - - - - - NNW 11 17 6 9 1021.8 - 0.0
22/08:00am - - - - - N 11 19 6 10 1021.9 1021.8 0.0

Other Formats:

Comma delimited format used in spreadsheet applications
http://www.bom.gov.au/fwo/IDW60801/IDW60801.95635.axf

JavaScript Object Notation format (JSON) in row-major order
http://www.bom.gov.au/fwo/IDW60801/IDW60801.95635.json